x

Boston 16 Nm East Of Boston, Ma (44013) Wave Buoy

7:50am - Fri 19th Sep 2014 All times are EDT. -4 hours from GMT.

  • Sig Wave height 5.2ft
  • Swell Direction
  • Peak Period 6s
  • Average Period 5s
  • Wind
    20mph, 25mph gusts
  • Sea Temp 61°f
  • Air Temp 51°f
  • Sea Pressure 1026.5mb
  • Boston 16 Nm East Of Boston, Ma
  • Boston 16 Nm East Of Boston, Ma

More Historic Weather Station data

Upgrade to MSW Pro to gain access to the past 30 days of data for over 8000 Wavebouys and Weather Stations around the globe.

Join Pro

Comparision Forecast

View Surf forecast
   
Fri 09/19 7:50am 5ft 6s 5s 20 25 mph 1026.5mb 61f 51f
6:50am 5ft 6s 5s 22 27 mph 1025.6mb 61f 52f
5:50am 5ft 6s 5s 20 22 mph 1024.8mb 60f 52f
4:50am 4.5ft 6s 5s 20 25 mph 1024mb 61f 53f
3:50am 4.5ft 6s 4s 20 22 mph 1023mb 60f 54f
2:50am 4ft 5s 4s 20 22 mph 1022.5mb 61f 55f
1:50am 3.5ft 5s 4s 20 25 mph 1021.9mb 61f 56f
12:50am 3.5ft 4s 4s 20 22 mph 1021.2mb 61f 57f
Thu 09/18 11:50pm 3.5ft 10s 4s 20 22 mph 1020.4mb 61f 58f
10:50pm 3.5ft 10s 4s 22 29 mph 1019.4mb 61f 60f
9:50pm 2.5ft 11s 4s 20 25 mph 1018.5mb 62f 61f
8:50pm 1.6ft 11s 8s 18 22 mph 1017.6mb 62f 63f
7:50pm 2ft 11s 7s 4
mph
1016.7mb 63f 63f
6:50pm 2ft 12s 9s 2
mph
1015.7mb 63f 64f
5:50pm 2ft 12s 9s 2
mph
1015.3mb 64f 64f
4:50pm 2ft 12s 9s 4
mph
1014.9mb 64f 65f
3:50pm 2ft 11s 9s 4
mph
1014.8mb 64f 66f
2:50pm 2ft 13s 9s 2 4 mph 1014.7mb 62f 65f
1:50pm 2.5ft 11s 9s 2
mph
1014.8mb 63f 64f
12:50pm 2.5ft 14s 8s 4
mph
1015.1mb 62f 62f
11:50am 2.5ft 14s 8s 4 7 mph 1015.1mb 61f 62f
10:50am 2.5ft 12s 7s 9
mph
1015.2mb 60f 60f
9:50am 2.5ft 11s 7s 11 13 mph 1015.2mb 60f 59f
8:50am 3ft 13s 8s 11 13 mph 1015mb 60f 58f
7:50am 3ft 12s 7s 11 13 mph 1014.5mb 61f 59f
6:50am 2.5ft 11s 7s 11
mph
1014.4mb 61f 58f
5:50am 3ft 11s 8s 11
mph
1014mb 61f 58f
4:50am 2.5ft 11s 8s 9 11 mph 1013.9mb 61f 58f
3:50am 2.5ft 14s 8s 9 11 mph 1013.6mb 61f 59f
2:50am 2.5ft 12s 8s 9 11 mph 1013.9mb 61f 59f
1:50am 2.5ft 13s 9s 9 11 mph 1014.3mb 61f 60f
12:50am 2.5ft 14s 8s 7 9 mph 1014.4mb 62f 61f
Wed 09/17 11:50pm 2.5ft 14s 10s 9
mph
1014.7mb 62f 61f
10:50pm 2.5ft 14s 10s 7
mph
1014.8mb 62f 61f
9:50pm 2.5ft 14s 9s 2 4 mph 1015.1mb 63f 62f
8:50pm 2.5ft 12s 9s 4
mph
1015mb 63f 63f
7:50pm 2.5ft 14s 8s 7 9 mph 1014.6mb 63f 63f
6:50pm 2.5ft 12s 7s 9 11 mph 1014.4mb 63f 62f
5:50pm 2.5ft 13s 7s 11
mph
1014.1mb 64f 62f
4:50pm 2ft 13s 8s 11 13 mph 1014mb 64f 62f
3:50pm 2ft 14s 8s 11 13 mph 1014.5mb 64f 61f
2:50pm 2ft 14s 9s 9 11 mph 1014.7mb 64f 61f
1:50pm 1.6ft 15s 8s 4 7 mph 1015.4mb 65f 60f
12:50pm 2ft 14s 9s  -  2 mph 1016mb 63f 60f
11:50am 2ft 15s 9s 4
mph
1016.5mb 62f 58f
10:50am 1.6ft 12s 8s 4 7 mph 1016.6mb 62f 58f
9:50am 1.6ft 13s 7s 4 7 mph 1016.5mb 62f 57f
8:50am 1.3ft 15s 6s 9 11 mph 1016.5mb 62f 56f
7:50am 1.6ft 12s 5s 9 11 mph 1016.4mb 62f 57f
6:50am 1.3ft 12s 5s 11 13 mph 1015.8mb 61f 57f
5:50am 1.3ft 14s 5s 11 13 mph 1015.6mb 61f 58f
4:50am 1.3ft 13s 7s 11 13 mph 1015.4mb 61f 58f
3:50am 1.3ft 13s 7s 9 11 mph 1015.3mb 61f 60f
2:50am 1.3ft 13s 7s 7 9 mph 1015.3mb 61f 60f
1:50am 1.3ft 13s 6s 7
mph
1015.5mb 61f 59f
12:50am 1.3ft 13s 5s 4
mph
1015.7mb 61f 60f
Tue 09/16 11:50pm 1.3ft 8s 5s 4
mph
1015.8mb 61f 60f
10:50pm 1.3ft 11s 6s 2 4 mph 1015.7mb 61f 60f
9:50pm 1.3ft 12s 6s 2 4 mph 1015.6mb 61f 60f
8:50pm 1.3ft 8s 7s 4
mph
1015.4mb 61f 60f
7:50pm 1.3ft 8s 6s 7
mph
1015.1mb 61f 60f
6:50pm 1.3ft 9s 6s 7
mph
1014.7mb 61f 60f
5:50pm 1.3ft 9s 6s 7
mph
1014.8mb 61f 60f
4:50pm 1.3ft 9s 6s 4
mph
1014.7mb 62f 60f
3:50pm 1.3ft 9s 5s 2
mph
1014.8mb 62f 60f
2:50pm 1.3ft 9s 6s 2 4 mph 1015mb 62f 60f
1:50pm 1.3ft 8s 6s 4
mph
1015.2mb 62f 60f
12:50pm 1.6ft 8s 5s 4 7 mph 1015.8mb 62f 59f
11:50am 1.3ft 9s 5s 2
mph
1016.5mb 61f 60f
10:50am 1.6ft 9s 5s 2
mph
1016.7mb 61f 59f
9:50am 2ft 6s 5s 2 4 mph 1016.5mb 61f 60f
8:50am 2ft 7s 5s 2 4 mph 1016.9mb 61f 58f
7:50am 1.6ft 7s 4s 4
mph
1017.5mb 61f 58f
6:50am 2ft 7s 4s 4 7 mph 1017.9mb 61f 59f
5:50am 2ft 8s 4s 9 13 mph 1017.9mb 61f 60f
4:50am 2.5ft 7s 4s 11 13 mph 1017.4mb 60f 60f
3:50am 2ft 8s 5s 11 13 mph 1017.7mb 60f 60f
2:50am 1.6ft 7s 5s 11 13 mph 1018.6mb 61f 60f
1:50am 1.6ft 8s 5s 11 13 mph 1019.1mb 61f 60f
12:50am 1.6ft 8s 4s 11 13 mph 1019.6mb 60f 60f
Mon 09/15 11:50pm 1.6ft 8s 4s 11 13 mph 1019.7mb 60f 60f
10:50pm 1.3ft 8s 5s 11
mph
1020.1mb 60f 60f
9:50pm 1.3ft 9s 5s 7 9 mph 1020.4mb 61f 60f
8:50pm 1.3ft 9s 5s 7 9 mph 1021mb 61f 60f
7:50pm 1.3ft 7s 5s 9
mph
1020.5mb 61f 59f
6:50pm 1.3ft 8s 5s 7 9 mph 1020.3mb 62f 59f
5:50pm 1.6ft 7s 5s 7 9 mph 1020.8mb 63f 59f
4:50pm 1.6ft 7s 5s 7 9 mph 1020.5mb 63f 59f
3:50pm 1.6ft 5s 5s 7 9 mph 1020.9mb 63f 59f
2:50pm 2ft 5s 4s 4 7 mph 1021.4mb 64f 59f
1:50pm 2ft 5s 4s 4
mph
1021.9mb 63f 58f